Ava, Missouri
Current Conditions -  °F | °C
As of 3:45 PM on Sunday 25 Jan 2015 (Local Time) from KBBG Reporting Station
Light Rain Light Rain  
Wind Chill: 30°   Ceiling: 2000
Heat Index: 39°   Visibility: 5mi
Dew Point: 32°   Wind: 17mph
Humidity: 75%   Direction: 310°NW
Pressure: 29.86"   Gusts: 26mph
Location:  36.95°N, 92.66°W
Report Text: KBBG 252145Z 31015G23KT 5SM -RA OVC020 04/00 A2986
Loading
Personal Weather Stations






























Interactive Weather Map New forecast layout! Learn more

10-Day Weather Forecast

Advertisements
Track Severe Weather on mobile